Terminal Aerodrome Forecast
Issued by NWS

Home | Current Version | Previous Version | Text Only | Print | Product List | Glossary Off
Versions: 1 2 3 4 5 6 7 8 9 10 11 12 13 14 15 16 17 18

000
FTUS43 KICT 242320
TAFRSL
TAF
KRSL 242320Z 2500/2524 16008KT P6SM VCSH SCT020 BKN050
     FM250400 15008KT P6SM OVC015
     FM250800 15008KT 4SM BR VCTS OVC005CB
     FM251600 19010KT P6SM SCT025
     FM252100 20012G20KT P6SM VCTS SCT060CB=

USA.gov is the U.S. government's official web portal to all federal, state and local government web resources and services.